sensor_id;sensor_type;location;lat;lon;timestamp;P1;durP1;ratioP1;P2;durP2;ratioP2
37309;SDS011;23195;47.744;7.358;2023-05-29T06:08:02;6.83;;;5.17;;
37309;SDS011;23195;47.744;7.358;2023-05-29T06:10:38;5.67;;;4.90;;
37309;SDS011;23195;47.744;7.358;2023-05-29T06:13:15;7.50;;;5.70;;
37309;SDS011;23195;47.744;7.358;2023-05-29T06:15:47;8.50;;;5.23;;
37309;SDS011;23195;47.744;7.358;2023-05-29T06:18:13;11.70;;;5.37;;
37309;SDS011;23195;47.744;7.358;2023-05-29T06:23:27;10.23;;;5.40;;
37309;SDS011;23195;47.744;7.358;2023-05-29T06:26:06;11.67;;;5.20;;
37309;SDS011;23195;47.744;7.358;2023-05-29T06:31:59;9.20;;;4.80;;
37309;SDS011;23195;47.744;7.358;2023-05-29T06:34:25;7.57;;;4.97;;
37309;SDS011;23195;47.744;7.358;2023-05-29T06:36:55;7.97;;;5.07;;
37309;SDS011;23195;47.744;7.358;2023-05-29T06:39:28;6.90;;;5.07;;
37309;SDS011;23195;47.744;7.358;2023-05-29T06:45:22;9.63;;;5.27;;
37309;SDS011;23195;47.744;7.358;2023-05-29T06:47:47;8.93;;;4.90;;
37309;SDS011;23195;47.744;7.358;2023-05-29T06:50:13;7.57;;;4.97;;
37309;SDS011;23195;47.744;7.358;2023-05-29T06:52:39;8.57;;;4.60;;
37309;SDS011;23195;47.744;7.358;2023-05-29T06:55:05;7.30;;;4.67;;
37309;SDS011;23195;47.744;7.358;2023-05-29T06:57:31;5.90;;;4.60;;
37309;SDS011;23195;47.744;7.358;2023-05-29T06:59:57;7.97;;;5.00;;
37309;SDS011;23195;47.744;7.358;2023-05-29T07:02:23;7.93;;;4.57;;
37309;SDS011;23195;47.744;7.358;2023-05-29T07:04:49;8.33;;;4.70;;
37309;SDS011;23195;47.744;7.358;2023-05-29T07:07:14;8.03;;;4.40;;
37309;SDS011;23195;47.744;7.358;2023-05-29T07:09:40;6.57;;;5.00;;
37309;SDS011;23195;47.744;7.358;2023-05-29T07:12:06;9.20;;;4.57;;
37309;SDS011;23195;47.744;7.358;2023-05-29T07:14:32;6.87;;;4.50;;
37309;SDS011;23195;47.744;7.358;2023-05-29T07:16:59;8.17;;;5.20;;
37309;SDS011;23195;47.744;7.358;2023-05-29T07:19:25;7.37;;;4.70;;
37309;SDS011;23195;47.744;7.358;2023-05-29T07:21:50;6.00;;;4.43;;
37309;SDS011;23195;47.744;7.358;2023-05-29T07:24:16;6.10;;;4.57;;
37309;SDS011;23195;47.744;7.358;2023-05-29T07:26:42;7.80;;;4.53;;
37309;SDS011;23195;47.744;7.358;2023-05-29T07:29:10;7.60;;;4.67;;
37309;SDS011;23195;47.744;7.358;2023-05-29T07:31:37;5.97;;;4.10;;
37309;SDS011;23195;47.744;7.358;2023-05-29T07:34:05;6.93;;;4.67;;
37309;SDS011;23195;47.744;7.358;2023-05-29T07:36:31;7.80;;;4.47;;
37309;SDS011;23195;47.744;7.358;2023-05-29T07:39:00;12.13;;;4.83;;
37309;SDS011;23195;47.744;7.358;2023-05-29T07:41:26;7.90;;;4.40;;
37309;SDS011;23195;47.744;7.358;2023-05-29T07:43:52;6.63;;;4.27;;
37309;SDS011;23195;47.744;7.358;2023-05-29T07:46:18;7.20;;;4.60;;
37309;SDS011;23195;47.744;7.358;2023-05-29T07:48:44;7.10;;;4.10;;
37309;SDS011;23195;47.744;7.358;2023-05-29T07:51:11;7.37;;;4.33;;
37309;SDS011;23195;47.744;7.358;2023-05-29T07:53:40;7.00;;;4.40;;
37309;SDS011;23195;47.744;7.358;2023-05-29T07:56:10;5.80;;;4.23;;
37309;SDS011;23195;47.744;7.358;2023-05-29T08:01:38;7.70;;;4.70;;
37309;SDS011;23195;47.744;7.358;2023-05-29T08:04:29;8.23;;;4.70;;
37309;SDS011;23195;47.744;7.358;2023-05-29T08:26:34;7.60;;;4.50;;
37309;SDS011;23195;47.744;7.358;2023-05-29T08:29:43;7.00;;;4.73;;
37309;SDS011;23195;47.744;7.358;2023-05-29T08:41:59;7.77;;;4.20;;
37309;SDS011;23195;47.744;7.358;2023-05-29T08:51:23;8.20;;;4.73;;
37309;SDS011;23195;47.744;7.358;2023-05-29T08:54:19;6.10;;;4.40;;
37309;SDS011;23195;47.744;7.358;2023-05-29T09:22:03;6.80;;;4.10;;
37309;SDS011;23195;47.744;7.358;2023-05-29T09:28:38;9.00;;;4.20;;
37309;SDS011;23195;47.744;7.358;2023-05-29T09:56:18;9.80;;;4.67;;
37309;SDS011;23195;47.744;7.358;2023-05-29T10:02:42;6.13;;;4.20;;
37309;SDS011;23195;47.744;7.358;2023-05-29T10:13:03;8.93;;;4.83;;
37309;SDS011;23195;47.744;7.358;2023-05-29T10:19:19;7.53;;;4.77;;
37309;SDS011;23195;47.744;7.358;2023-05-29T10:21:54;6.73;;;4.40;;
37309;SDS011;23195;47.744;7.358;2023-05-29T10:24:35;13.03;;;4.80;;
37309;SDS011;23195;47.744;7.358;2023-05-29T10:27:07;8.90;;;4.70;;
37309;SDS011;23195;47.744;7.358;2023-05-29T10:36:21;7.53;;;4.97;;
37309;SDS011;23195;47.744;7.358;2023-05-29T10:49:48;9.33;;;4.63;;
37309;SDS011;23195;47.744;7.358;2023-05-29T10:52:50;8.00;;;4.70;;
37309;SDS011;23195;47.744;7.358;2023-05-29T10:55:25;8.17;;;4.87;;
37309;SDS011;23195;47.744;7.358;2023-05-29T10:58:52;10.40;;;4.50;;
37309;SDS011;23195;47.744;7.358;2023-05-29T11:01:19;9.50;;;5.13;;
37309;SDS011;23195;47.744;7.358;2023-05-29T11:04:44;6.67;;;4.43;;
37309;SDS011;23195;47.744;7.358;2023-05-29T11:09:48;8.70;;;4.90;;
37309;SDS011;23195;47.744;7.358;2023-05-29T11:13:09;8.33;;;5.03;;
37309;SDS011;23195;47.744;7.358;2023-05-29T11:18:44;12.43;;;5.33;;
37309;SDS011;23195;47.744;7.358;2023-05-29T11:24:58;5.77;;;4.47;;
37309;SDS011;23195;47.744;7.358;2023-05-29T11:27:33;8.10;;;4.60;;
37309;SDS011;23195;47.744;7.358;2023-05-29T11:30:11;6.97;;;4.43;;
37309;SDS011;23195;47.744;7.358;2023-05-29T11:32:47;10.57;;;4.80;;
37309;SDS011;23195;47.744;7.358;2023-05-29T11:35:30;8.90;;;4.90;;
37309;SDS011;23195;47.744;7.358;2023-05-29T11:38:31;8.07;;;4.63;;
37309;SDS011;23195;47.744;7.358;2023-05-29T11:41:20;7.00;;;4.47;;
37309;SDS011;23195;47.744;7.358;2023-05-29T11:44:00;8.20;;;4.70;;
37309;SDS011;23195;47.744;7.358;2023-05-29T11:46:39;9.00;;;4.90;;
37309;SDS011;23195;47.744;7.358;2023-05-29T11:49:27;6.57;;;4.60;;
37309;SDS011;23195;47.744;7.358;2023-05-29T12:19:26;8.20;;;4.43;;
37309;SDS011;23195;47.744;7.358;2023-05-29T12:28:16;8.40;;;4.43;;
37309;SDS011;23195;47.744;7.358;2023-05-29T12:31:08;6.73;;;4.50;;
37309;SDS011;23195;47.744;7.358;2023-05-29T12:34:19;8.87;;;4.80;;
37309;SDS011;23195;47.744;7.358;2023-05-29T12:37:09;6.37;;;4.47;;
37309;SDS011;23195;47.744;7.358;2023-05-29T12:43:27;10.07;;;4.73;;
37309;SDS011;23195;47.744;7.358;2023-05-29T12:46:42;11.07;;;5.00;;
37309;SDS011;23195;47.744;7.358;2023-05-29T12:56:24;7.67;;;4.60;;
37309;SDS011;23195;47.744;7.358;2023-05-29T13:06:04;6.23;;;4.57;;
37309;SDS011;23195;47.744;7.358;2023-05-29T13:18:22;7.23;;;4.60;;
37309;SDS011;23195;47.744;7.358;2023-05-29T13:21:34;8.03;;;4.63;;
37309;SDS011;23195;47.744;7.358;2023-05-29T13:24:05;6.87;;;4.93;;
37309;SDS011;23195;47.744;7.358;2023-05-29T13:26:37;6.97;;;4.60;;
37309;SDS011;23195;47.744;7.358;2023-05-29T13:29:13;9.23;;;4.83;;
37309;SDS011;23195;47.744;7.358;2023-05-29T13:31:39;7.80;;;4.70;;
37309;SDS011;23195;47.744;7.358;2023-05-29T13:34:10;5.80;;;4.70;;
37309;SDS011;23195;47.744;7.358;2023-05-29T13:36:38;8.37;;;4.90;;
37309;SDS011;23195;47.744;7.358;2023-05-29T13:39:12;8.57;;;5.23;;
37309;SDS011;23195;47.744;7.358;2023-05-29T13:41:57;6.57;;;4.80;;
37309;SDS011;23195;47.744;7.358;2023-05-29T13:44:36;5.70;;;4.43;;
37309;SDS011;23195;47.744;7.358;2023-05-29T13:47:14;8.20;;;5.00;;
37309;SDS011;23195;47.744;7.358;2023-05-29T13:49:59;10.07;;;4.90;;
37309;SDS011;23195;47.744;7.358;2023-05-29T13:52:45;6.63;;;5.10;;
37309;SDS011;23195;47.744;7.358;2023-05-29T13:55:29;8.07;;;4.87;;
37309;SDS011;23195;47.744;7.358;2023-05-29T13:58:04;7.90;;;4.93;;
37309;SDS011;23195;47.744;7.358;2023-05-29T14:00:47;7.80;;;5.20;;
37309;SDS011;23195;47.744;7.358;2023-05-29T14:03:23;6.20;;;4.80;;
37309;SDS011;23195;47.744;7.358;2023-05-29T14:06:20;6.87;;;4.63;;
37309;SDS011;23195;47.744;7.358;2023-05-29T14:09:23;7.97;;;4.80;;
37309;SDS011;23195;47.744;7.358;2023-05-29T14:11:57;7.40;;;4.90;;
37309;SDS011;23195;47.744;7.358;2023-05-29T14:14:27;7.03;;;5.00;;
37309;SDS011;23195;47.744;7.358;2023-05-29T14:17:11;9.80;;;5.13;;
37309;SDS011;23195;47.744;7.358;2023-05-29T14:20:11;7.33;;;4.73;;
37309;SDS011;23195;47.744;7.358;2023-05-29T14:22:37;7.00;;;4.70;;
37309;SDS011;23195;47.744;7.358;2023-05-29T14:25:14;9.20;;;4.90;;
37309;SDS011;23195;47.744;7.358;2023-05-29T14:28:00;6.77;;;4.40;;
37309;SDS011;23195;47.744;7.358;2023-05-29T14:30:31;6.03;;;4.97;;
37309;SDS011;23195;47.744;7.358;2023-05-29T14:33:14;7.73;;;4.93;;
37309;SDS011;23195;47.744;7.358;2023-05-29T14:35:49;7.07;;;4.90;;
37309;SDS011;23195;47.744;7.358;2023-05-29T14:38:39;7.57;;;4.70;;
37309;SDS011;23195;47.744;7.358;2023-05-29T14:44:02;8.17;;;4.33;;
37309;SDS011;23195;47.744;7.358;2023-05-29T14:46:31;10.40;;;4.50;;
37309;SDS011;23195;47.744;7.358;2023-05-29T14:49:17;7.97;;;4.27;;
37309;SDS011;23195;47.744;7.358;2023-05-29T14:51:56;10.73;;;4.83;;
37309;SDS011;23195;47.744;7.358;2023-05-29T14:54:32;13.67;;;6.80;;
37309;SDS011;23195;47.744;7.358;2023-05-29T14:56:58;6.43;;;4.73;;
37309;SDS011;23195;47.744;7.358;2023-05-29T14:59:42;7.63;;;4.80;;
37309;SDS011;23195;47.744;7.358;2023-05-29T15:02:11;6.20;;;4.50;;
37309;SDS011;23195;47.744;7.358;2023-05-29T15:04:43;7.40;;;5.00;;
37309;SDS011;23195;47.744;7.358;2023-05-29T15:07:13;8.07;;;4.80;;
37309;SDS011;23195;47.744;7.358;2023-05-29T15:09:46;11.80;;;4.63;;
37309;SDS011;23195;47.744;7.358;2023-05-29T15:12:25;6.97;;;4.50;;
37309;SDS011;23195;47.744;7.358;2023-05-29T15:15:01;7.27;;;4.50;;
37309;SDS011;23195;47.744;7.358;2023-05-29T15:17:39;8.67;;;4.77;;
37309;SDS011;23195;47.744;7.358;2023-05-29T15:20:09;7.50;;;5.00;;
37309;SDS011;23195;47.744;7.358;2023-05-29T15:22:37;7.50;;;4.97;;
37309;SDS011;23195;47.744;7.358;2023-05-29T15:25:06;10.20;;;4.90;;
37309;SDS011;23195;47.744;7.358;2023-05-29T15:27:35;11.27;;;5.03;;
37309;SDS011;23195;47.744;7.358;2023-05-29T15:30:11;8.30;;;5.10;;
37309;SDS011;23195;47.744;7.358;2023-05-29T15:32:45;7.23;;;4.70;;
37309;SDS011;23195;47.744;7.358;2023-05-29T15:35:18;7.53;;;4.27;;
37309;SDS011;23195;47.744;7.358;2023-05-29T15:37:48;9.50;;;4.17;;
37309;SDS011;23195;47.744;7.358;2023-05-29T15:40:19;9.87;;;4.70;;
37309;SDS011;23195;47.744;7.358;2023-05-29T15:42:45;9.83;;;4.53;;
37309;SDS011;23195;47.744;7.358;2023-05-29T15:45:16;16.13;;;4.83;;
37309;SDS011;23195;47.744;7.358;2023-05-29T15:47:57;6.57;;;4.60;;
37309;SDS011;23195;47.744;7.358;2023-05-29T15:50:28;9.27;;;4.93;;
37309;SDS011;23195;47.744;7.358;2023-05-29T15:53:12;9.17;;;4.23;;
37309;SDS011;23195;47.744;7.358;2023-05-29T15:55:45;6.60;;;4.50;;
37309;SDS011;23195;47.744;7.358;2023-05-29T15:58:20;11.83;;;4.80;;
37309;SDS011;23195;47.744;7.358;2023-05-29T16:00:47;7.00;;;4.17;;
37309;SDS011;23195;47.744;7.358;2023-05-29T16:03:23;11.63;;;5.23;;
37309;SDS011;23195;47.744;7.358;2023-05-29T16:05:49;7.50;;;4.53;;
37309;SDS011;23195;47.744;7.358;2023-05-29T16:08:15;7.03;;;4.23;;
37309;SDS011;23195;47.744;7.358;2023-05-29T16:10:47;8.20;;;4.50;;
37309;SDS011;23195;47.744;7.358;2023-05-29T16:13:13;8.20;;;4.57;;
37309;SDS011;23195;47.744;7.358;2023-05-29T16:15:38;10.47;;;4.50;;
37309;SDS011;23195;47.744;7.358;2023-05-29T16:18:13;7.73;;;4.77;;
37309;SDS011;23195;47.744;7.358;2023-05-29T16:24:04;9.33;;;4.87;;
37309;SDS011;23195;47.744;7.358;2023-05-29T16:29:52;9.50;;;4.83;;
37309;SDS011;23195;47.744;7.358;2023-05-29T16:32:21;6.37;;;4.40;;
37309;SDS011;23195;47.744;7.358;2023-05-29T16:35:01;8.70;;;4.57;;
37309;SDS011;23195;47.744;7.358;2023-05-29T16:37:30;16.33;;;5.27;;
37309;SDS011;23195;47.744;7.358;2023-05-29T16:43:02;8.97;;;4.60;;
37309;SDS011;23195;47.744;7.358;2023-05-29T16:45:28;8.93;;;4.80;;
37309;SDS011;23195;47.744;7.358;2023-05-29T16:48:19;11.43;;;4.93;;
37309;SDS011;23195;47.744;7.358;2023-05-29T16:50:49;11.47;;;5.83;;
37309;SDS011;23195;47.744;7.358;2023-05-29T16:53:18;10.47;;;5.17;;
37309;SDS011;23195;47.744;7.358;2023-05-29T16:55:53;7.10;;;4.97;;
37309;SDS011;23195;47.744;7.358;2023-05-29T16:58:29;7.30;;;4.43;;
37309;SDS011;23195;47.744;7.358;2023-05-29T17:01:07;8.00;;;5.00;;
37309;SDS011;23195;47.744;7.358;2023-05-29T17:03:33;11.90;;;4.93;;
37309;SDS011;23195;47.744;7.358;2023-05-29T17:06:11;10.13;;;5.00;;
37309;SDS011;23195;47.744;7.358;2023-05-29T17:08:46;10.43;;;5.13;;
37309;SDS011;23195;47.744;7.358;2023-05-29T17:11:17;6.93;;;4.17;;
37309;SDS011;23195;47.744;7.358;2023-05-29T17:13:43;16.50;;;4.63;;
37309;SDS011;23195;47.744;7.358;2023-05-29T17:16:16;8.77;;;4.53;;
37309;SDS011;23195;47.744;7.358;2023-05-29T17:18:47;7.13;;;4.30;;
37309;SDS011;23195;47.744;7.358;2023-05-29T17:21:21;10.77;;;4.70;;
37309;SDS011;23195;47.744;7.358;2023-05-29T17:23:50;6.53;;;4.20;;
37309;SDS011;23195;47.744;7.358;2023-05-29T17:26:22;7.03;;;4.13;;
37309;SDS011;23195;47.744;7.358;2023-05-29T17:28:51;5.53;;;4.00;;
37309;SDS011;23195;47.744;7.358;2023-05-29T17:31:17;11.80;;;4.83;;
37309;SDS011;23195;47.744;7.358;2023-05-29T17:33:46;9.27;;;4.23;;
37309;SDS011;23195;47.744;7.358;2023-05-29T17:36:14;9.73;;;4.60;;
37309;SDS011;23195;47.744;7.358;2023-05-29T17:38:40;7.20;;;4.13;;
37309;SDS011;23195;47.744;7.358;2023-05-29T17:41:06;8.43;;;4.07;;
37309;SDS011;23195;47.744;7.358;2023-05-29T17:43:32;7.13;;;4.17;;
37309;SDS011;23195;47.744;7.358;2023-05-29T17:46:00;6.93;;;4.10;;
37309;SDS011;23195;47.744;7.358;2023-05-29T17:48:27;6.80;;;4.23;;
37309;SDS011;23195;47.744;7.358;2023-05-29T17:50:52;7.57;;;4.23;;
37309;SDS011;23195;47.744;7.358;2023-05-29T17:53:18;8.43;;;4.13;;
37309;SDS011;23195;47.744;7.358;2023-05-29T17:55:53;6.33;;;4.60;;
37309;SDS011;23195;47.744;7.358;2023-05-29T17:58:19;8.77;;;4.00;;
37309;SDS011;23195;47.744;7.358;2023-05-29T18:00:45;9.13;;;4.57;;
37309;SDS011;23195;47.744;7.358;2023-05-29T18:03:21;6.83;;;4.07;;
37309;SDS011;23195;47.744;7.358;2023-05-29T18:05:50;8.03;;;4.30;;
37309;SDS011;23195;47.744;7.358;2023-05-29T18:08:26;5.33;;;3.80;;
37309;SDS011;23195;47.744;7.358;2023-05-29T18:10:52;9.77;;;5.17;;
37309;SDS011;23195;47.744;7.358;2023-05-29T18:13:21;11.63;;;6.17;;
37309;SDS011;23195;47.744;7.358;2023-05-29T18:19:07;10.87;;;3.90;;
37309;SDS011;23195;47.744;7.358;2023-05-29T18:24:45;6.23;;;3.70;;
37309;SDS011;23195;47.744;7.358;2023-05-29T18:27:20;5.60;;;4.10;;
37309;SDS011;23195;47.744;7.358;2023-05-29T18:29:49;6.83;;;3.70;;
37309;SDS011;23195;47.744;7.358;2023-05-29T18:32:31;5.60;;;3.77;;
37309;SDS011;23195;47.744;7.358;2023-05-29T18:35:12;6.67;;;3.70;;
37309;SDS011;23195;47.744;7.358;2023-05-29T18:37:38;5.97;;;3.93;;
37309;SDS011;23195;47.744;7.358;2023-05-29T18:40:07;6.83;;;3.90;;
37309;SDS011;23195;47.744;7.358;2023-05-29T18:42:34;5.60;;;3.70;;
37309;SDS011;23195;47.744;7.358;2023-05-29T18:45:09;8.37;;;3.93;;
37309;SDS011;23195;47.744;7.358;2023-05-29T18:47:35;6.07;;;3.57;;
37309;SDS011;23195;47.744;7.358;2023-05-29T18:50:01;7.40;;;3.97;;
37309;SDS011;23195;47.744;7.358;2023-05-29T18:52:50;7.03;;;4.00;;
37309;SDS011;23195;47.744;7.358;2023-05-29T18:55:18;8.10;;;3.97;;
37309;SDS011;23195;47.744;7.358;2023-05-29T18:57:47;6.30;;;3.90;;
37309;SDS011;23195;47.744;7.358;2023-05-29T19:00:42;6.40;;;4.53;;
37309;SDS011;23195;47.744;7.358;2023-05-29T19:08:44;8.17;;;3.83;;
37309;SDS011;23195;47.744;7.358;2023-05-29T19:11:19;4.30;;;3.40;;
37309;SDS011;23195;47.744;7.358;2023-05-29T19:14:18;4.70;;;3.53;;
37309;SDS011;23195;47.744;7.358;2023-05-29T19:16:43;5.50;;;3.63;;
37309;SDS011;23195;47.744;7.358;2023-05-29T19:19:15;7.70;;;3.67;;
37309;SDS011;23195;47.744;7.358;2023-05-29T19:21:44;4.90;;;3.47;;
37309;SDS011;23195;47.744;7.358;2023-05-29T19:24:13;5.93;;;3.70;;
37309;SDS011;23195;47.744;7.358;2023-05-29T19:26:40;5.83;;;3.60;;
37309;SDS011;23195;47.744;7.358;2023-05-29T19:29:21;7.07;;;3.63;;
37309;SDS011;23195;47.744;7.358;2023-05-29T19:31:56;6.97;;;3.70;;
37309;SDS011;23195;47.744;7.358;2023-05-29T19:34:22;7.63;;;5.67;;
37309;SDS011;23195;47.744;7.358;2023-05-29T19:36:52;9.83;;;3.80;;
37309;SDS011;23195;47.744;7.358;2023-05-29T19:39:18;6.73;;;3.63;;
37309;SDS011;23195;47.744;7.358;2023-05-29T19:41:47;6.07;;;3.50;;
37309;SDS011;23195;47.744;7.358;2023-05-29T19:44:16;6.63;;;3.80;;
37309;SDS011;23195;47.744;7.358;2023-05-29T19:46:45;7.37;;;4.67;;
37309;SDS011;23195;47.744;7.358;2023-05-29T19:49:14;7.93;;;3.50;;
37309;SDS011;23195;47.744;7.358;2023-05-29T19:51:40;5.10;;;3.60;;
37309;SDS011;23195;47.744;7.358;2023-05-29T19:54:14;6.43;;;4.10;;
37309;SDS011;23195;47.744;7.358;2023-05-29T19:56:50;5.70;;;3.80;;
37309;SDS011;23195;47.744;7.358;2023-05-29T19:59:19;7.23;;;4.20;;
37309;SDS011;23195;47.744;7.358;2023-05-29T20:01:45;6.83;;;3.43;;
37309;SDS011;23195;47.744;7.358;2023-05-29T20:04:12;5.73;;;3.10;;
37309;SDS011;23195;47.744;7.358;2023-05-29T20:06:41;6.97;;;3.63;;
37309;SDS011;23195;47.744;7.358;2023-05-29T20:09:15;7.10;;;3.60;;
37309;SDS011;23195;47.744;7.358;2023-05-29T20:11:44;12.03;;;4.23;;
37309;SDS011;23195;47.744;7.358;2023-05-29T20:14:20;6.50;;;3.43;;
37309;SDS011;23195;47.744;7.358;2023-05-29T20:16:46;6.07;;;3.37;;
37309;SDS011;23195;47.744;7.358;2023-05-29T20:19:14;6.20;;;3.50;;
37309;SDS011;23195;47.744;7.358;2023-05-29T20:21:40;7.90;;;3.50;;
37309;SDS011;23195;47.744;7.358;2023-05-29T20:24:05;10.37;;;3.50;;
37309;SDS011;23195;47.744;7.358;2023-05-29T20:26:34;6.93;;;3.73;;
37309;SDS011;23195;47.744;7.358;2023-05-29T20:28:59;5.93;;;4.20;;
37309;SDS011;23195;47.744;7.358;2023-05-29T20:35:03;10.77;;;4.33;;
37309;SDS011;23195;47.744;7.358;2023-05-29T20:37:47;7.97;;;4.00;;
37309;SDS011;23195;47.744;7.358;2023-05-29T20:44:13;7.30;;;3.93;;
37309;SDS011;23195;47.744;7.358;2023-05-29T20:54:05;5.80;;;3.60;;
37309;SDS011;23195;47.744;7.358;2023-05-29T21:00:55;5.17;;;3.43;;
37309;SDS011;23195;47.744;7.358;2023-05-29T21:12:42;5.53;;;3.97;;
37309;SDS011;23195;47.744;7.358;2023-05-29T21:19:29;9.73;;;4.20;;
37309;SDS011;23195;47.744;7.358;2023-05-29T21:29:28;7.07;;;3.47;;
37309;SDS011;23195;47.744;7.358;2023-05-29T21:32:25;5.43;;;3.47;;
37309;SDS011;23195;47.744;7.358;2023-05-29T21:39:46;7.13;;;3.90;;
37309;SDS011;23195;47.744;7.358;2023-05-29T22:00:32;7.23;;;3.40;;
37309;SDS011;23195;47.744;7.358;2023-05-29T22:10:47;7.40;;;3.40;;
37309;SDS011;23195;47.744;7.358;2023-05-29T22:17:31;5.60;;;3.67;;
37309;SDS011;23195;47.744;7.358;2023-05-29T22:23:44;6.80;;;3.60;;
37309;SDS011;23195;47.744;7.358;2023-05-29T22:30:20;7.20;;;3.70;;
37309;SDS011;23195;47.744;7.358;2023-05-29T22:32:54;6.13;;;3.63;;
37309;SDS011;23195;47.744;7.358;2023-05-29T22:35:32;11.83;;;3.80;;
37309;SDS011;23195;47.744;7.358;2023-05-29T22:38:20;5.50;;;3.70;;
37309;SDS011;23195;47.744;7.358;2023-05-29T22:41:08;11.67;;;3.63;;
37309;SDS011;23195;47.744;7.358;2023-05-29T22:43:45;5.83;;;3.33;;
37309;SDS011;23195;47.744;7.358;2023-05-29T22:46:11;8.93;;;4.30;;
37309;SDS011;23195;47.744;7.358;2023-05-29T22:48:44;5.93;;;3.83;;
37309;SDS011;23195;47.744;7.358;2023-05-29T22:55:37;5.27;;;3.13;;
37309;SDS011;23195;47.744;7.358;2023-05-29T23:01:38;5.90;;;3.80;;
37309;SDS011;23195;47.744;7.358;2023-05-29T23:04:07;5.30;;;3.70;;
37309;SDS011;23195;47.744;7.358;2023-05-29T23:07:07;4.90;;;3.57;;
37309;SDS011;23195;47.744;7.358;2023-05-29T23:10:13;4.13;;;3.63;;
37309;SDS011;23195;47.744;7.358;2023-05-29T23:13:09;12.20;;;4.07;;
37309;SDS011;23195;47.744;7.358;2023-05-29T23:15:45;5.53;;;4.10;;
37309;SDS011;23195;47.744;7.358;2023-05-29T23:18:55;7.20;;;4.33;;
37309;SDS011;23195;47.744;7.358;2023-05-29T23:24:24;5.97;;;4.10;;
37309;SDS011;23195;47.744;7.358;2023-05-29T23:26:51;6.67;;;3.93;;
37309;SDS011;23195;47.744;7.358;2023-05-29T23:29:37;5.87;;;4.30;;
37309;SDS011;23195;47.744;7.358;2023-05-29T23:32:37;8.47;;;4.23;;
37309;SDS011;23195;47.744;7.358;2023-05-29T23:35:18;8.00;;;4.67;;
37309;SDS011;23195;47.744;7.358;2023-05-29T23:38:04;8.30;;;4.30;;
37309;SDS011;23195;47.744;7.358;2023-05-29T23:41:07;11.07;;;4.50;;
37309;SDS011;23195;47.744;7.358;2023-05-29T23:47:50;9.33;;;4.83;;
37309;SDS011;23195;47.744;7.358;2023-05-29T23:50:42;8.93;;;5.20;;
37309;SDS011;23195;47.744;7.358;2023-05-29T23:53:31;8.80;;;4.73;;
37309;SDS011;23195;47.744;7.358;2023-05-29T23:56:28;9.83;;;4.87;;
37309;SDS011;23195;47.744;7.358;2023-05-29T23:59:39;9.70;;;4.90;;
